Time;durP1;ratioP1;P1;durP2;ratioP2;P2;SDS_P1;SDS_P2;PMS_P1;PMS_P2;Temp;Humidity;BMP_temperature;BMP_pressure;BME280_temperature;BME280_humidity;BME280_pressure;Samples;Min_cycle;Max_cycle;Signal;HPM_P1;HPM_P2
2024/01/16 00:02:09;;;;;;;4.43;1.20;;;;;;;2.74;81.16;98783.34;4953981;29;20057;-80
2024/01/16 00:04:40;;;;;;;4.07;1.15;;;;;;;2.73;80.71;98786.88;4936887;29;20059;-80
2024/01/16 00:07:07;;;;;;;3.40;1.25;;;;;;;2.77;81.69;98776.34;4954250;29;20141;-80
2024/01/16 00:09:34;;;;;;;3.58;1.45;;;;;;;2.78;81.15;98783.25;4953810;29;20074;-81
2024/01/16 00:12:03;;;;;;;7.28;1.38;;;;;;;2.78;81.19;98780.63;4953598;29;20125;-80
2024/01/16 00:14:30;;;;;;;5.93;1.10;;;;;;;2.79;81.69;98790.97;4953794;29;20142;-80
2024/01/16 00:16:57;;;;;;;6.03;1.30;;;;;;;2.80;81.55;98792.66;4953709;29;20059;-79
2024/01/16 00:19:23;;;;;;;3.97;1.50;;;;;;;2.82;81.43;98795.19;4953444;28;20484;-79
2024/01/16 00:21:51;;;;;;;5.05;1.45;;;;;;;2.83;81.50;98795.16;4953457;29;20063;-79
2024/01/16 00:24:17;;;;;;;5.50;2.17;;;;;;;2.84;81.41;98796.00;4936834;29;20390;-79
2024/01/16 00:26:44;;;;;;;7.15;1.80;;;;;;;2.83;81.06;98787.34;4953696;29;20086;-79
2024/01/16 00:29:12;;;;;;;7.88;1.95;;;;;;;2.84;81.11;98788.22;4953709;29;20154;-81
2024/01/16 00:31:39;;;;;;;5.72;1.50;;;;;;;2.84;80.86;98790.81;4953260;29;20047;-79
2024/01/16 00:34:06;;;;;;;7.70;2.05;;;;;;;2.83;80.86;98800.34;4936644;29;20138;-79
2024/01/16 00:36:32;;;;;;;11.32;1.58;;;;;;;2.82;80.80;98800.41;4953852;29;20527;-79
2024/01/16 00:38:59;;;;;;;8.57;1.90;;;;;;;2.81;80.64;98801.31;4953347;28;20523;-78
2024/01/16 00:41:25;;;;;;;9.05;1.90;;;;;;;2.79;80.58;98809.16;4953116;29;20094;-80
2024/01/16 00:43:52;;;;;;;10.40;1.65;;;;;;;2.79;80.74;98806.56;4953350;29;20130;-80
2024/01/16 00:46:18;;;;;;;7.93;2.25;;;;;;;2.78;80.57;98802.28;4953283;29;20509;-80
2024/01/16 00:48:45;;;;;;;11.20;2.50;;;;;;;2.76;80.78;98801.50;4953524;29;20130;-79
2024/01/16 00:51:11;;;;;;;5.88;1.70;;;;;;;2.76;80.25;98806.69;4936049;29;20081;-79
2024/01/16 00:53:43;;;;;;;5.70;1.50;;;;;;;2.72;80.03;98810.31;4952960;29;20047;-80
2024/01/16 00:56:10;;;;;;;6.65;1.85;;;;;;;2.72;80.08;98818.09;4936313;29;20055;-79
2024/01/16 00:58:37;;;;;;;10.65;2.17;;;;;;;2.69;79.87;98820.84;4953099;29;20492;-79
2024/01/16 01:01:04;;;;;;;8.57;2.08;;;;;;;2.66;79.89;98821.81;4952962;29;20043;-80
2024/01/16 01:03:30;;;;;;;7.72;2.45;;;;;;;2.63;79.48;98819.34;4953076;29;20091;-79
2024/01/16 01:05:57;;;;;;;8.77;2.40;;;;;;;2.59;79.59;98836.78;4952907;29;20634;-79
2024/01/16 01:08:24;;;;;;;7.40;2.38;;;;;;;2.55;79.36;98821.38;4953020;29;20075;-79
2024/01/16 01:10:51;;;;;;;7.70;2.38;;;;;;;2.52;79.63;98831.88;4953059;29;20055;-78
2024/01/16 01:13:18;;;;;;;10.70;2.80;;;;;;;2.49;79.81;98835.47;4952081;29;20175;-81
2024/01/16 01:15:44;;;;;;;7.85;2.67;;;;;;;2.45;79.80;98839.94;4952849;29;20050;-79
2024/01/16 01:18:11;;;;;;;7.85;2.40;;;;;;;2.43;79.95;98840.91;4953120;29;20051;-79
2024/01/16 01:20:37;;;;;;;13.52;2.88;;;;;;;2.40;79.95;98844.47;4952816;29;20097;-79
2024/01/16 01:23:04;;;;;;;12.23;2.65;;;;;;;2.37;79.73;98844.56;4952178;29;20613;-78
2024/01/16 01:25:30;;;;;;;8.85;2.90;;;;;;;2.35;80.28;98846.38;4952524;29;20061;-78
2024/01/16 01:27:57;;;;;;;7.88;2.50;;;;;;;2.31;80.77;98853.44;4952754;29;20078;-79
2024/01/16 01:30:24;;;;;;;10.82;2.75;;;;;;;2.30;80.71;98848.28;4952701;29;20448;-78
2024/01/16 01:32:50;;;;;;;12.30;3.03;;;;;;;2.30;80.65;98849.16;4952377;29;20054;-78
2024/01/16 01:35:19;;;;;;;10.30;2.67;;;;;;;2.29;80.34;98850.06;4935616;29;20093;-79
2024/01/16 01:37:46;;;;;;;9.98;2.78;;;;;;;2.28;80.67;98860.50;4952087;29;20047;-79
2024/01/16 01:40:15;;;;;;;8.73;2.30;;;;;;;2.27;80.29;98858.78;4952506;29;20090;-78
2024/01/16 01:42:42;;;;;;;7.07;2.70;;;;;;;2.25;80.41;98860.59;4952429;29;20047;-79
2024/01/16 01:45:10;;;;;;;10.13;2.53;;;;;;;2.22;79.96;98867.59;4952657;29;20090;-78
2024/01/16 01:47:44;;;;;;;12.35;3.55;;;;;;;2.20;79.97;98861.63;4935404;29;20130;-78
2024/01/16 01:50:11;;;;;;;14.13;3.17;;;;;;;2.18;79.99;98866.03;4951933;29;20055;-78
2024/01/16 01:52:40;;;;;;;11.60;2.50;;;;;;;2.15;80.26;98860.97;4952176;29;20047;-79
2024/01/16 01:55:11;;;;;;;7.13;2.72;;;;;;;2.12;79.89;98868.84;4952425;29;20456;-78
2024/01/16 01:57:38;;;;;;;10.68;3.15;;;;;;;2.11;79.78;98864.56;4952221;29;20122;-78
2024/01/16 02:00:06;;;;;;;9.45;2.75;;;;;;;2.07;80.20;98874.22;4935196;29;20051;-79
2024/01/16 02:02:33;;;;;;;15.20;3.00;;;;;;;2.04;80.26;98874.31;4952124;29;20043;-78
2024/01/16 02:04:59;;;;;;;8.35;3.13;;;;;;;2.02;80.22;98876.13;4952287;29;20051;-79
2024/01/16 02:07:26;;;;;;;14.57;3.80;;;;;;;2.01;80.72;98874.44;4934798;29;20055;-78
2024/01/16 02:09:53;;;;;;;11.95;3.55;;;;;;;2.00;80.81;98872.75;4952688;29;20091;-79
2024/01/16 02:12:20;;;;;;;6.57;2.90;;;;;;;2.01;81.55;98871.84;4952260;29;20054;-79
2024/01/16 02:14:50;;;;;;;13.73;3.30;;;;;;;2.00;81.19;98880.53;4935827;29;20120;-79
2024/01/16 02:17:17;;;;;;;8.38;3.20;;;;;;;2.03;81.68;98870.03;4952167;29;20086;-79
2024/01/16 02:19:44;;;;;;;12.05;3.80;;;;;;;2.04;81.44;98874.31;4951874;29;20055;-79
2024/01/16 02:22:19;;;;;;;10.05;2.97;;;;;;;2.05;81.00;98875.16;4951915;29;20054;-79
2024/01/16 02:24:45;;;;;;;17.05;3.40;;;;;;;2.08;81.95;98877.66;4952322;29;20130;-79
2024/01/16 02:27:12;;;;;;;10.65;3.17;;;;;;;2.10;81.91;98872.41;4951981;29;20457;-79
2024/01/16 02:29:43;;;;;;;16.52;3.42;;;;;;;2.12;81.08;98875.78;4951905;29;20138;-78
2024/01/16 02:32:12;;;;;;;8.90;3.17;;;;;;;2.12;80.94;98887.03;4934872;29;20047;-78
2024/01/16 02:34:40;;;;;;;16.30;3.40;;;;;;;2.14;81.67;98885.22;4935140;29;20500;-78
2024/01/16 02:37:06;;;;;;;11.55;3.25;;;;;;;2.16;81.67;98877.34;4934977;29;20059;-82
2024/01/16 02:39:33;;;;;;;10.68;3.17;;;;;;;2.16;81.35;98872.16;4951317;29;20483;-79
2024/01/16 02:41:59;;;;;;;6.47;2.80;;;;;;;2.17;81.60;98874.72;4951893;29;20138;-78
2024/01/16 02:44:26;;;;;;;9.15;2.60;;;;;;;2.17;81.51;98877.31;4952038;29;20054;-78
2024/01/16 02:46:52;;;;;;;14.02;2.83;;;;;;;2.17;81.02;98877.31;4952064;29;20416;-79
2024/01/16 02:49:19;;;;;;;10.15;2.92;;;;;;;2.16;80.81;98867.84;4951785;29;20457;-82
2024/01/16 02:51:45;;;;;;;7.38;3.13;;;;;;;2.16;80.48;98879.97;4934790;29;20074;-80
2024/01/16 02:54:12;;;;;;;7.38;3.08;;;;;;;2.14;80.80;98885.22;4951685;29;20484;-79
2024/01/16 02:56:38;;;;;;;11.40;2.53;;;;;;;2.14;80.75;98884.38;4951958;29;20102;-78
2024/01/16 02:59:05;;;;;;;10.02;3.00;;;;;;;2.13;80.55;98890.47;4934718;29;20055;-78
2024/01/16 03:01:32;;;;;;;10.10;3.35;;;;;;;2.11;80.56;98890.53;4952933;28;20098;-80
2024/01/16 03:03:58;;;;;;;14.57;2.72;;;;;;;2.10;80.49;98898.38;4955391;29;20066;-79
2024/01/16 03:06:25;;;;;;;11.98;3.50;;;;;;;2.07;80.15;98896.72;4955393;29;20059;-78
2024/01/16 03:08:52;;;;;;;6.68;2.67;;;;;;;2.05;80.69;98899.38;4955059;29;20051;-79
2024/01/16 03:11:19;;;;;;;11.23;3.33;;;;;;;2.02;80.22;98902.06;4954524;29;20043;-79
2024/01/16 03:13:45;;;;;;;11.07;3.25;;;;;;;2.01;80.00;98904.72;4937798;29;20047;-78
2024/01/16 03:16:12;;;;;;;6.30;2.85;;;;;;;1.98;80.21;98907.44;4955308;29;20059;-78
2024/01/16 03:18:38;;;;;;;10.68;2.83;;;;;;;1.95;79.95;98908.41;4954991;29;20053;-78
2024/01/16 03:21:06;;;;;;;12.98;3.33;;;;;;;1.91;79.84;98909.41;4954596;29;20065;-80
2024/01/16 03:23:32;;;;;;;9.75;3.55;;;;;;;1.87;80.20;98911.25;4955328;29;20134;-78
2024/01/16 03:25:59;;;;;;;7.95;3.28;;;;;;;1.85;80.12;98907.88;4954979;29;20693;-78
2024/01/16 03:28:25;;;;;;;10.15;3.60;;;;;;;1.85;80.79;98912.22;4954806;29;20102;-80
2024/01/16 03:30:52;;;;;;;8.00;3.55;;;;;;;1.83;80.74;98901.88;4937193;29;20496;-79
2024/01/16 03:33:19;;;;;;;13.80;3.97;;;;;;;1.82;80.90;98895.84;4954499;29;20055;-78
2024/01/16 03:35:46;;;;;;;11.43;4.10;;;;;;;1.82;81.15;98903.63;4937768;29;20062;-80
2024/01/16 03:38:13;;;;;;;13.98;5.25;;;;;;;1.83;81.45;98901.88;4954711;29;20134;-77
2024/01/16 03:40:43;;;;;;;10.93;4.50;;;;;;;1.84;81.36;98903.59;4954328;29;20047;-79
2024/01/16 03:43:09;;;;;;;15.02;4.70;;;;;;;1.84;81.11;98900.13;4937188;29;20062;-77
2024/01/16 03:45:36;;;;;;;12.77;4.00;;;;;;;1.84;80.84;98897.53;4954749;29;20390;-80
2024/01/16 03:48:03;;;;;;;12.75;4.15;;;;;;;1.85;81.72;98900.09;4937384;29;20055;-79
2024/01/16 03:50:30;;;;;;;12.27;4.60;;;;;;;1.84;80.96;98893.22;4954251;29;20047;-78
2024/01/16 03:52:56;;;;;;;13.00;4.28;;;;;;;1.84;81.27;98901.00;4937095;29;20182;-79
2024/01/16 03:55:23;;;;;;;12.73;5.03;;;;;;;1.84;81.21;98907.91;4954610;29;20055;-79
2024/01/16 03:57:50;;;;;;;13.95;4.93;;;;;;;1.81;80.75;98906.28;4954150;29;20141;-79
2024/01/16 04:00:17;;;;;;;7.43;4.05;;;;;;;1.80;81.36;98908.03;4953918;29;20055;-81
2024/01/16 04:02:44;;;;;;;9.13;4.35;;;;;;;1.80;81.45;98909.78;4954013;29;20106;-79
2024/01/16 04:05:10;;;;;;;10.60;5.00;;;;;;;1.81;80.79;98908.88;4937182;29;20062;-79
2024/01/16 04:07:37;;;;;;;10.45;4.95;;;;;;;1.81;81.07;98916.66;4937145;29;20832;-79
2024/01/16 04:10:06;;;;;;;12.23;4.93;;;;;;;1.80;80.88;98907.19;4953782;29;20082;-80
2024/01/16 04:12:33;;;;;;;15.00;5.47;;;;;;;1.80;81.07;98910.63;4935709;29;20110;-79
2024/01/16 04:14:59;;;;;;;12.98;5.65;;;;;;;1.80;81.26;98907.19;4954019;29;20111;-78
2024/01/16 04:17:26;;;;;;;14.70;5.65;;;;;;;1.80;81.71;98910.63;4936851;29;20055;-79
2024/01/16 04:19:52;;;;;;;12.85;6.05;;;;;;;1.80;81.45;98905.44;4953606;28;20162;-77
2024/01/16 04:22:19;;;;;;;11.77;5.68;;;;;;;1.81;81.55;98903.69;4953439;29;20051;-79
2024/01/16 04:24:46;;;;;;;10.82;5.38;;;;;;;1.82;81.25;98907.97;4953620;29;20090;-78
2024/01/16 04:27:13;;;;;;;10.95;5.30;;;;;;;1.81;81.29;98904.56;4953720;29;20620;-80
2024/01/16 04:29:40;;;;;;;11.63;4.53;;;;;;;1.82;81.71;98908.84;4953508;29;20048;-78
2024/01/16 04:32:06;;;;;;;9.93;4.68;;;;;;;1.82;81.18;98911.44;4936258;29;20413;-78
2024/01/16 04:34:34;;;;;;;13.95;4.68;;;;;;;1.82;81.07;98902.78;4936485;29;20048;-81
2024/01/16 04:37:01;;;;;;;12.77;4.43;;;;;;;1.82;81.25;98911.44;4953643;29;20065;-79
2024/01/16 04:39:27;;;;;;;12.98;4.28;;;;;;;1.82;80.82;98910.56;4953404;29;20134;-78
2024/01/16 04:41:54;;;;;;;18.17;4.78;;;;;;;1.82;81.43;98923.53;4953033;29;20452;-81
2024/01/16 04:44:20;;;;;;;14.45;4.28;;;;;;;1.83;81.59;98907.06;4936257;29;20604;-79
2024/01/16 04:46:47;;;;;;;15.45;3.97;;;;;;;1.82;81.41;98911.44;4953343;29;20533;-78
2024/01/16 04:49:13;;;;;;;18.63;5.95;;;;;;;1.82;81.12;98914.03;4953415;29;20133;-78
2024/01/16 04:51:40;;;;;;;10.88;4.55;;;;;;;1.84;81.21;98911.38;4935676;29;20051;-78
2024/01/16 04:54:07;;;;;;;15.25;5.00;;;;;;;1.84;80.86;98918.31;4953117;29;20133;-79
2024/01/16 04:56:34;;;;;;;11.05;4.90;;;;;;;1.83;81.17;98914.84;4953433;29;20047;-78
2024/01/16 04:59:00;;;;;;;11.13;5.07;;;;;;;1.84;80.85;98907.91;4953253;29;20058;-78
2024/01/16 05:01:27;;;;;;;13.30;3.92;;;;;;;1.84;81.55;98915.72;4935547;29;20047;-79
2024/01/16 05:03:54;;;;;;;9.68;4.63;;;;;;;1.84;81.42;98911.38;4952776;29;20534;-77
2024/01/16 05:06:21;;;;;;;14.48;5.13;;;;;;;1.84;80.95;98910.50;4935891;29;20082;-77
2024/01/16 05:08:48;;;;;;;12.65;4.80;;;;;;;1.86;81.26;98911.31;4953278;29;20059;-77
2024/01/16 05:11:15;;;;;;;11.90;5.10;;;;;;;1.86;81.36;98912.16;4935935;29;20055;-78
2024/01/16 05:13:41;;;;;;;10.63;5.63;;;;;;;1.87;81.33;98908.66;4935758;29;20051;-77
2024/01/16 05:16:08;;;;;;;12.38;5.00;;;;;;;1.88;81.35;98897.41;4936099;29;20159;-78
2024/01/16 05:18:34;;;;;;;10.35;4.95;;;;;;;1.87;81.79;98903.47;4952728;29;20134;-77
2024/01/16 05:21:02;;;;;;;13.13;5.32;;;;;;;1.89;81.36;98899.09;4952586;29;20481;-77
2024/01/16 05:23:29;;;;;;;12.98;5.22;;;;;;;1.89;81.22;98896.47;4935561;29;20047;-77
2024/01/16 05:25:55;;;;;;;13.57;5.80;;;;;;;1.89;80.88;98891.28;4934843;29;20216;-78
2024/01/16 05:28:22;;;;;;;13.55;5.88;;;;;;;1.89;81.05;98896.47;4952942;29;20106;-78
2024/01/16 05:30:49;;;;;;;14.10;5.47;;;;;;;1.89;81.32;98893.88;4952712;29;20055;-80
2024/01/16 05:33:15;;;;;;;11.05;5.95;;;;;;;1.88;80.63;98887.00;4952364;29;20129;-79
2024/01/16 05:35:42;;;;;;;15.98;6.22;;;;;;;1.89;80.60;98895.63;4952097;29;20496;-78
2024/01/16 05:38:12;;;;;;;18.52;6.50;;;;;;;1.87;80.87;98895.69;4952691;29;20109;-83
2024/01/16 05:40:39;;;;;;;12.73;6.43;;;;;;;1.86;80.58;98885.38;4952514;29;20106;-78
2024/01/16 05:43:06;;;;;;;15.65;6.60;;;;;;;1.82;80.27;98889.81;4952659;29;20055;-78
2024/01/16 05:45:32;;;;;;;15.10;7.88;;;;;;;1.80;80.77;98881.25;4936060;29;20055;-79
2024/01/16 05:47:59;;;;;;;14.77;7.25;;;;;;;1.79;80.75;98880.38;4952555;29;20133;-78
2024/01/16 05:50:26;;;;;;;15.55;7.88;;;;;;;1.78;81.15;98880.44;4935763;29;20066;-80
2024/01/16 05:52:53;;;;;;;19.88;8.27;;;;;;;1.76;80.39;98883.06;4935765;29;20511;-78
2024/01/16 05:55:21;;;;;;;16.90;8.13;;;;;;;1.77;81.01;98892.56;4935660;29;20059;-78
2024/01/16 05:57:47;;;;;;;14.32;7.80;;;;;;;1.76;80.71;98885.66;4953341;29;20059;-79
2024/01/16 06:00:14;;;;;;;18.13;7.85;;;;;;;1.75;80.82;98883.16;4953989;29;20556;-82
2024/01/16 06:02:41;;;;;;;13.82;8.05;;;;;;;1.74;81.00;98889.22;4952558;29;20094;-83
2024/01/16 06:05:07;;;;;;;17.27;8.68;;;;;;;1.72;80.63;98883.25;4952423;29;20048;-78
2024/01/16 06:07:34;;;;;;;16.25;8.52;;;;;;;1.72;80.95;98884.09;4952607;29;20062;-81
2024/01/16 06:10:01;;;;;;;17.38;8.52;;;;;;;1.71;80.87;98886.75;4953127;29;20090;-81
2024/01/16 06:12:28;;;;;;;17.40;8.65;;;;;;;1.68;80.62;98885.09;4952776;29;20055;-80
2024/01/16 06:14:55;;;;;;;15.45;8.43;;;;;;;1.68;80.94;98882.50;4935633;29;20059;-80
2024/01/16 06:20:07;;;;;;;17.80;9.63;;;;;;;1.64;80.49;98879.16;5078729;23;20066;-80
2024/01/16 06:22:34;;;;;;;16.60;9.23;;;;;;;1.64;80.58;98883.53;4954724;28;20050;-80
2024/01/16 06:25:02;;;;;;;17.08;9.30;;;;;;;1.62;80.41;98880.13;4971893;28;20137;-82
2024/01/16 06:27:28;;;;;;;18.55;9.75;;;;;;;1.60;80.52;98889.72;4971998;28;20568;-80
2024/01/16 06:29:55;;;;;;;20.75;9.13;;;;;;;1.60;80.97;98882.75;4971482;28;20527;-80
2024/01/16 06:32:21;;;;;;;14.00;9.00;;;;;;;1.60;81.05;98882.75;4971453;28;20511;-79
2024/01/16 06:34:48;;;;;;;20.08;9.10;;;;;;;1.59;80.66;98888.88;4971975;28;20062;-79
2024/01/16 06:37:15;;;;;;;21.63;9.82;;;;;;;1.57;80.64;98893.25;4974955;28;20377;-80
2024/01/16 06:39:41;;;;;;;20.70;9.98;;;;;;;1.56;80.56;98873.41;4975209;28;20415;-81
2024/01/16 06:42:08;;;;;;;14.00;9.02;;;;;;;1.54;80.75;98880.41;4974482;28;20090;-81
2024/01/16 06:44:37;;;;;;;16.00;8.90;;;;;;;1.54;80.83;98875.22;4957842;28;20423;-82
2024/01/16 06:47:04;;;;;;;21.30;9.80;;;;;;;1.52;81.12;98877.84;4975056;28;20062;-80
2024/01/16 06:49:30;;;;;;;15.75;9.25;;;;;;;1.51;80.43;98885.69;4974947;28;20130;-80
2024/01/16 06:51:57;;;;;;;19.38;8.63;;;;;;;1.50;80.90;98884.00;4974600;28;20057;-81
2024/01/16 06:54:24;;;;;;;17.58;10.18;;;;;;;1.49;80.84;98893.50;4974444;28;20097;-80
2024/01/16 06:56:50;;;;;;;20.50;8.77;;;;;;;1.48;81.01;98890.97;4974609;28;20051;-80
2024/01/16 06:59:19;;;;;;;16.83;8.52;;;;;;;1.47;80.75;98895.31;4974885;28;20066;-81
2024/01/16 07:01:46;;;;;;;23.15;9.38;;;;;;;1.49;81.46;98895.28;4974452;28;20258;-81
2024/01/16 07:04:14;;;;;;;16.45;9.30;;;;;;;1.50;81.20;98899.56;4974051;28;20488;-80
2024/01/16 07:06:41;;;;;;;17.25;8.88;;;;;;;1.51;81.54;98901.25;4974638;28;20047;-80
2024/01/16 07:09:10;;;;;;;18.38;9.45;;;;;;;1.53;81.59;98905.47;4974522;28;20047;-79
2024/01/16 07:11:38;;;;;;;18.63;9.27;;;;;;;1.55;81.20;98902.84;4956930;28;20174;-81
2024/01/16 07:14:07;;;;;;;23.23;10.13;;;;;;;1.55;80.52;98905.44;4973994;28;20448;-79
2024/01/16 07:16:34;;;;;;;15.38;9.40;;;;;;;1.56;80.87;98900.19;4974576;28;20459;-80
2024/01/16 07:19:02;;;;;;;14.90;8.85;;;;;;;1.57;80.97;98906.22;4974465;28;20142;-80
2024/01/16 07:21:28;;;;;;;14.48;8.38;;;;;;;1.58;80.87;98914.84;4974219;28;20058;-80
2024/01/16 07:23:55;;;;;;;16.65;8.77;;;;;;;1.58;81.08;98907.06;4973823;28;20062;-77
2024/01/16 07:26:23;;;;;;;16.50;8.95;;;;;;;1.57;80.74;98911.41;4974258;28;20464;-77
2024/01/16 07:28:49;;;;;;;15.18;9.07;;;;;;;1.56;80.67;98905.38;4974500;28;20078;-79
2024/01/16 07:31:16;;;;;;;17.58;8.80;;;;;;;1.57;80.48;98919.19;4957013;28;20054;-77
2024/01/16 07:33:43;;;;;;;17.20;8.77;;;;;;;1.55;80.87;98919.25;4973984;28;20054;-77
2024/01/16 07:36:11;;;;;;;19.67;8.45;;;;;;;1.52;80.80;98911.56;4973587;28;20046;-78
2024/01/16 07:38:38;;;;;;;16.10;8.07;;;;;;;1.53;80.49;98921.03;4973951;28;20081;-78
2024/01/16 07:41:05;;;;;;;15.60;7.68;;;;;;;1.52;80.79;98923.69;4973818;28;20051;-78
2024/01/16 07:43:32;;;;;;;20.15;9.10;;;;;;;1.52;81.07;98926.28;4974039;28;20054;-77
2024/01/16 07:45:59;;;;;;;17.55;7.95;;;;;;;1.51;80.39;98927.19;4973692;28;20058;-77
2024/01/16 07:48:25;;;;;;;16.33;8.70;;;;;;;1.50;80.94;98928.09;4955828;28;20050;-76
2024/01/16 07:50:52;;;;;;;18.40;8.45;;;;;;;1.49;80.47;98929.00;4973844;28;20053;-77
2024/01/16 07:53:19;;;;;;;17.65;8.15;;;;;;;1.49;81.29;98923.81;4956255;28;20051;-77
2024/01/16 07:55:45;;;;;;;16.60;8.30;;;;;;;1.51;81.59;98930.63;4973423;28;20090;-78
2024/01/16 07:58:13;;;;;;;14.10;7.55;;;;;;;1.52;81.17;98934.91;4973788;28;20054;-76
2024/01/16 08:00:40;;;;;;;12.35;7.15;;;;;;;1.54;81.14;98942.66;4973984;28;20046;-78
2024/01/16 08:03:11;;;;;;;14.05;7.88;;;;;;;1.55;81.45;98944.34;4973590;28;20138;-77
2024/01/16 08:05:38;;;;;;;12.38;6.97;;;;;;;1.57;81.53;98939.94;4973626;28;20055;-76
2024/01/16 08:08:09;;;;;;;13.48;7.18;;;;;;;1.59;81.36;98956.31;4973219;28;20051;-79
2024/01/16 08:10:36;;;;;;;16.13;7.75;;;;;;;1.62;81.64;98948.44;4973790;28;20075;-78
2024/01/16 08:13:03;;;;;;;16.83;7.15;;;;;;;1.65;81.54;98952.66;4955956;28;20101;-77
2024/01/16 08:15:30;;;;;;;10.60;6.80;;;;;;;1.67;82.11;98951.72;4973181;28;20537;-76
2024/01/16 08:17:56;;;;;;;12.65;6.50;;;;;;;1.72;81.76;98955.91;4972083;28;20138;-79
2024/01/16 08:20:23;;;;;;;11.65;5.95;;;;;;;1.75;82.36;98956.63;4970243;28;20097;-77
2024/01/16 08:22:53;;;;;;;13.63;6.43;;;;;;;1.78;81.68;98953.09;4940248;28;20090;-77
2024/01/16 08:25:20;;;;;;;15.57;6.22;;;;;;;1.82;81.83;98958.13;4955929;28;20078;-76
2024/01/16 08:27:46;;;;;;;11.60;7.03;;;;;;;1.87;82.19;98955.38;4972650;28;20509;-76
2024/01/16 08:30:13;;;;;;;17.75;7.50;;;;;;;1.89;82.06;98957.91;4973113;28;20055;-79
2024/01/16 08:32:40;;;;;;;12.27;7.18;;;;;;;1.93;81.60;98960.38;4972735;28;20091;-77
2024/01/16 08:35:07;;;;;;;11.35;6.60;;;;;;;1.97;81.99;98952.47;4973528;28;20051;-76
2024/01/16 08:37:34;;;;;;;14.25;6.57;;;;;;;2.00;82.02;98949.75;4972611;28;20058;-79
2024/01/16 08:40:01;;;;;;;17.08;6.82;;;;;;;2.02;81.07;98958.34;4973116;28;20047;-77
2024/01/16 08:42:27;;;;;;;10.65;6.38;;;;;;;2.04;81.73;98944.41;4972701;28;20043;-77
2024/01/16 08:44:54;;;;;;;13.32;7.05;;;;;;;2.07;81.81;98957.28;4973112;28;20061;-79
2024/01/16 08:47:20;;;;;;;16.75;6.72;;;;;;;2.10;81.75;98955.47;4955440;28;20102;-77
2024/01/16 08:49:48;;;;;;;11.43;6.38;;;;;;;2.11;81.37;98952.84;4955617;28;20059;-76
2024/01/16 08:52:15;;;;;;;12.10;6.68;;;;;;;2.14;81.47;98954.47;4972625;28;20062;-79
2024/01/16 08:54:42;;;;;;;10.32;6.40;;;;;;;2.16;80.92;98952.66;4972516;28;20065;-76
2024/01/16 08:57:10;;;;;;;15.38;6.78;;;;;;;2.17;81.55;98952.59;4972518;28;20527;-78
2024/01/16 08:59:40;;;;;;;16.27;6.80;;;;;;;2.19;80.72;98957.75;4955084;28;20061;-77
2024/01/16 09:02:07;;;;;;;10.77;6.60;;;;;;;2.20;81.61;98957.69;4955272;28;20110;-77
2024/01/16 09:04:34;;;;;;;11.48;6.70;;;;;;;2.22;81.26;98961.06;4972569;28;20085;-77
2024/01/16 09:07:00;;;;;;;12.45;7.03;;;;;;;2.25;81.27;98962.75;4955460;28;20093;-77
2024/01/16 09:09:28;;;;;;;16.05;7.78;;;;;;;2.26;81.06;98961.84;4972168;28;20440;-76
2024/01/16 09:11:54;;;;;;;11.35;6.68;;;;;;;2.28;81.14;98962.63;4972142;28;20102;-76
2024/01/16 09:14:21;;;;;;;15.10;7.82;;;;;;;2.30;81.52;98963.41;4972325;28;20058;-77
2024/01/16 09:16:47;;;;;;;14.70;7.15;;;;;;;2.32;81.28;98965.97;4955027;28;20113;-76
2024/01/16 09:19:14;;;;;;;14.63;6.90;;;;;;;2.34;81.16;98958.94;4972045;28;20472;-76
2024/01/16 09:21:40;;;;;;;14.15;7.15;;;;;;;2.33;81.13;98958.09;4971837;28;20155;-77
2024/01/16 09:24:08;;;;;;;13.00;7.35;;;;;;;2.35;81.06;98950.25;4972135;28;20082;-76
2024/01/16 09:26:34;;;;;;;12.25;6.88;;;;;;;2.38;81.46;98959.69;4954886;28;20110;-77
2024/01/16 09:29:01;;;;;;;14.82;7.22;;;;;;;2.40;81.25;98957.88;4972052;28;20054;-77
2024/01/16 09:31:27;;;;;;;17.77;7.15;;;;;;;2.41;81.39;98952.66;4971570;28;20092;-76
2024/01/16 09:33:54;;;;;;;12.38;6.88;;;;;;;2.45;81.23;98951.63;4972201;28;20142;-76
2024/01/16 09:36:21;;;;;;;12.68;6.20;;;;;;;2.47;81.14;98951.56;4972138;28;20047;-77
2024/01/16 09:38:47;;;;;;;9.88;6.18;;;;;;;2.48;81.20;98945.47;4954815;28;20062;-77
2024/01/16 09:41:14;;;;;;;10.95;6.15;;;;;;;2.50;80.54;98958.41;4954265;28;20503;-79
2024/01/16 09:43:42;;;;;;;13.25;6.53;;;;;;;2.51;81.13;98962.69;4971525;28;20117;-77
2024/01/16 09:46:10;;;;;;;11.32;5.88;;;;;;;2.50;80.76;98969.63;4971984;28;20400;-76
2024/01/16 09:48:38;;;;;;;10.23;6.55;;;;;;;2.50;80.95;98958.41;4971919;28;20483;-80
2024/01/16 09:51:05;;;;;;;10.57;5.90;;;;;;;2.52;81.36;98972.19;4971568;28;20047;-76
2024/01/16 09:53:32;;;;;;;10.05;6.55;;;;;;;2.53;81.26;98964.31;4970991;28;20534;-78
2024/01/16 09:56:03;;;;;;;12.50;7.30;;;;;;;2.54;80.14;98972.97;4971736;28;20058;-76
2024/01/16 09:58:34;;;;;;;15.07;6.28;;;;;;;2.54;80.08;98962.59;4954309;28;20057;-77
2024/01/16 10:01:01;;;;;;;18.45;7.30;;;;;;;2.55;80.81;98962.50;4954660;28;20102;-77
2024/01/16 10:03:31;;;;;;;15.00;6.88;;;;;;;2.56;80.88;98950.38;4971352;28;20455;-77
2024/01/16 10:05:59;;;;;;;11.93;6.72;;;;;;;2.57;80.75;98952.91;4954653;28;20584;-76
2024/01/16 10:08:28;;;;;;;14.57;7.93;;;;;;;2.59;80.98;98961.50;4971767;28;20149;-75
2024/01/16 10:10:55;;;;;;;14.35;6.82;;;;;;;2.60;81.12;98963.22;4972387;28;20524;-75
2024/01/16 10:13:21;;;;;;;10.80;7.13;;;;;;;2.62;81.34;98960.56;4957965;28;20050;-75
2024/01/16 10:15:52;;;;;;;11.68;6.90;;;;;;;2.62;80.48;98957.97;4975196;28;20050;-76
2024/01/16 10:18:26;;;;;;;12.13;6.80;;;;;;;2.66;81.08;98963.88;4957813;28;20054;-76
2024/01/16 10:20:54;;;;;;;14.85;7.32;;;;;;;2.69;81.74;98959.41;4975439;28;20069;-77
2024/01/16 10:23:24;;;;;;;13.30;6.72;;;;;;;2.71;80.93;98961.94;4957584;28;20059;-76
2024/01/16 10:26:07;;;;;;;12.63;6.63;;;;;;;2.71;79.02;98955.00;4957780;28;20094;-75
2024/01/16 10:28:35;;;;;;;12.05;7.00;;;;;;;2.78;81.03;98953.03;4975209;28;20047;-76
2024/01/16 10:31:03;;;;;;;16.17;6.80;;;;;;;2.82;81.10;98943.34;4958054;28;20459;-82
2024/01/16 10:33:31;;;;;;;12.95;6.93;;;;;;;2.84;81.11;98942.38;4957614;28;20086;-78
2024/01/16 10:36:12;;;;;;;18.10;8.70;;;;;;;2.83;79.10;98943.28;4955674;29;20051;-78
2024/01/16 10:38:44;;;;;;;11.13;7.07;;;;;;;2.88;79.96;98942.28;4938943;29;20059;-76
2024/01/16 10:41:25;;;;;;;10.48;7.07;;;;;;;2.91;80.92;98934.38;4938486;29;20120;-76
2024/01/16 10:44:06;;;;;;;13.82;7.57;;;;;;;2.92;79.36;98933.47;4963666;28;20058;-76
2024/01/16 10:46:33;;;;;;;15.27;7.43;;;;;;;2.96;81.01;98932.44;4974957;28;20460;-76
2024/01/16 10:49:02;;;;;;;17.35;7.88;;;;;;;2.98;80.94;98939.25;4957797;28;20408;-75
2024/01/16 10:51:31;;;;;;;16.17;7.43;;;;;;;3.00;80.81;98937.44;4957660;28;20069;-76
2024/01/16 10:54:09;;;;;;;16.15;7.90;;;;;;;3.00;79.50;98940.03;4974241;28;20521;-76
2024/01/16 10:56:36;;;;;;;14.80;8.07;;;;;;;3.04;81.11;98940.78;4974395;28;20061;-76
2024/01/16 10:59:12;;;;;;;18.85;8.93;;;;;;;3.08;80.64;98942.34;4957691;28;20146;-76
2024/01/16 11:01:45;;;;;;;17.75;8.13;;;;;;;3.08;79.65;98944.09;4974578;28;20117;-76
2024/01/16 11:04:12;;;;;;;;;;;;;;;3.10;77.56;98932.72;4957496;28;20052;-76
2024/01/16 11:06:42;;;;;;;16.65;8.70;;;;;;;3.16;80.49;98931.63;4974417;28;19926;-76
2024/01/16 11:09:09;;;;;;;15.82;9.10;;;;;;;3.16;80.49;98944.66;4975178;28;20054;-78
2024/01/16 11:11:38;;;;;;;15.95;9.05;;;;;;;3.13;80.02;98924.81;4974138;28;20097;-76
2024/01/16 11:14:06;;;;;;;19.30;9.50;;;;;;;3.13;80.04;98936.97;4974314;28;20478;-76
2024/01/16 11:16:34;;;;;;;19.30;10.05;;;;;;;3.13;80.23;98932.63;4956694;28;20058;-77
2024/01/16 11:19:04;;;;;;;20.90;10.38;;;;;;;3.13;80.92;98936.97;4974171;28;20518;-75
2024/01/16 11:21:51;;;;;;;16.15;10.43;;;;;;;3.14;80.28;98930.84;4959985;28;20051;-76
2024/01/16 11:24:18;;;;;;;19.45;11.15;;;;;;;3.15;80.23;98935.16;4973903;28;20500;-76
2024/01/16 11:26:44;;;;;;;15.43;10.80;;;;;;;3.15;79.89;98939.50;4956877;28;20171;-76
2024/01/16 11:29:26;;;;;;;23.20;11.73;;;;;;;3.10;77.75;98929.31;4974171;28;20047;-76
2024/01/16 11:31:54;;;;;;;23.93;11.93;;;;;;;3.13;79.94;98939.56;4973728;28;20538;-77
2024/01/16 11:34:41;;;;;;;24.73;11.95;;;;;;;3.13;80.00;98930.00;4959683;28;20054;-76
2024/01/16 11:37:12;;;;;;;23.75;12.20;;;;;;;3.11;79.89;98933.59;4956366;28;20125;-76
2024/01/16 11:39:40;;;;;;;24.52;12.43;;;;;;;3.10;79.84;98934.50;4956409;28;20078;-75